sensor_id;sensor_type;location;lat;lon;timestamp;pressure;altitude;pressure_sealevel;temperature;humidity
8575;BME280;4325;42.520;27.448;2024-03-23T00:53:53;101389.53;;;3.29;100.00
8575;BME280;4325;42.520;27.448;2024-03-23T00:56:19;101378.94;;;3.27;100.00
8575;BME280;4325;42.520;27.448;2024-03-23T00:58:46;101385.38;;;3.33;100.00
8575;BME280;4325;42.520;27.448;2024-03-23T01:01:12;101381.63;;;3.34;100.00
8575;BME280;4325;42.520;27.448;2024-03-23T01:03:39;101380.41;;;3.43;100.00
8575;BME280;4325;42.520;27.448;2024-03-23T01:06:05;101374.13;;;3.49;100.00
8575;BME280;4325;42.520;27.448;2024-03-23T01:08:33;101377.03;;;3.54;100.00
8575;BME280;4325;42.520;27.448;2024-03-23T01:11:00;101371.59;;;3.61;100.00
8575;BME280;4325;42.520;27.448;2024-03-23T01:13:28;101371.22;;;3.57;100.00
8575;BME280;4325;42.520;27.448;2024-03-23T01:15:55;101367.88;;;3.55;100.00
8575;BME280;4325;42.520;27.448;2024-03-23T01:18:23;101374.34;;;3.54;100.00
8575;BME280;4325;42.520;27.448;2024-03-23T01:20:49;101364.53;;;3.53;100.00
8575;BME280;4325;42.520;27.448;2024-03-23T01:23:16;101371.63;;;3.54;100.00
8575;BME280;4325;42.520;27.448;2024-03-23T01:25:51;101368.69;;;3.56;100.00
8575;BME280;4325;42.520;27.448;2024-03-23T01:28:18;101366.63;;;3.51;100.00
8575;BME280;4325;42.520;27.448;2024-03-23T01:30:44;101364.56;;;3.47;100.00
8575;BME280;4325;42.520;27.448;2024-03-23T01:33:11;101369.97;;;3.40;100.00
8575;BME280;4325;42.520;27.448;2024-03-23T01:35:56;101370.81;;;3.34;100.00
8575;BME280;4325;42.520;27.448;2024-03-23T01:38:23;101369.78;;;3.35;100.00
8575;BME280;4325;42.520;27.448;2024-03-23T01:40:56;101364.56;;;3.27;100.00
8575;BME280;4325;42.520;27.448;2024-03-23T01:43:24;101364.34;;;3.22;100.00
8575;BME280;4325;42.520;27.448;2024-03-23T01:45:50;101362.47;;;3.22;100.00
8575;BME280;4325;42.520;27.448;2024-03-23T01:48:19;101360.00;;;3.21;100.00
8575;BME280;4325;42.520;27.448;2024-03-23T01:50:45;101359.16;;;3.14;100.00
8575;BME280;4325;42.520;27.448;2024-03-23T01:53:14;101361.03;;;3.13;100.00
8575;BME280;4325;42.520;27.448;2024-03-23T01:55:42;101348.13;;;3.09;100.00
8575;BME280;4325;42.520;27.448;2024-03-23T01:58:11;101352.69;;;3.02;100.00
8575;BME280;4325;42.520;27.448;2024-03-23T02:00:37;101359.56;;;2.98;100.00
8575;BME280;4325;42.520;27.448;2024-03-23T02:03:22;101348.13;;;2.89;100.00
8575;BME280;4325;42.520;27.448;2024-03-23T02:05:48;101349.34;;;2.93;100.00
8575;BME280;4325;42.520;27.448;2024-03-23T02:08:17;101357.06;;;2.96;100.00
8575;BME280;4325;42.520;27.448;2024-03-23T02:10:43;101355.19;;;3.03;100.00
8575;BME280;4325;42.520;27.448;2024-03-23T02:13:12;101354.97;;;3.05;100.00
8575;BME280;4325;42.520;27.448;2024-03-23T02:15:39;101360.59;;;3.10;100.00
8575;BME280;4325;42.520;27.448;2024-03-23T02:18:07;101361.66;;;3.15;100.00
8575;BME280;4325;42.520;27.448;2024-03-23T02:20:33;101359.56;;;3.17;100.00
8575;BME280;4325;42.520;27.448;2024-03-23T02:23:01;101360.81;;;3.15;100.00
8575;BME280;4325;42.520;27.448;2024-03-23T02:25:28;101356.47;;;3.14;100.00
8575;BME280;4325;42.520;27.448;2024-03-23T02:27:54;101357.09;;;3.16;100.00
8575;BME280;4325;42.520;27.448;2024-03-23T02:30:21;101356.63;;;3.19;100.00
8575;BME280;4325;42.520;27.448;2024-03-23T02:32:48;101356.22;;;3.22;100.00
8575;BME280;4325;42.520;27.448;2024-03-23T02:35:14;101349.19;;;3.21;100.00
8575;BME280;4325;42.520;27.448;2024-03-23T02:37:41;101359.16;;;3.27;100.00
8575;BME280;4325;42.520;27.448;2024-03-23T02:40:08;101360.81;;;3.34;100.00
8575;BME280;4325;42.520;27.448;2024-03-23T02:42:36;101364.16;;;3.43;100.00
8575;BME280;4325;42.520;27.448;2024-03-23T02:45:02;101356.84;;;3.44;100.00
8575;BME280;4325;42.520;27.448;2024-03-23T02:47:30;101356.22;;;3.42;100.00
8575;BME280;4325;42.520;27.448;2024-03-23T02:49:56;101359.16;;;3.40;100.00
8575;BME280;4325;42.520;27.448;2024-03-23T02:52:23;101361.66;;;3.35;100.00
8575;BME280;4325;42.520;27.448;2024-03-23T02:54:49;101363.28;;;3.36;100.00
8575;BME280;4325;42.520;27.448;2024-03-23T02:57:18;101359.97;;;3.34;100.00
8575;BME280;4325;42.520;27.448;2024-03-23T02:59:44;101352.25;;;3.31;100.00
8575;BME280;4325;42.520;27.448;2024-03-23T03:02:12;101359.56;;;3.30;100.00
8575;BME280;4325;42.520;27.448;2024-03-23T03:04:39;101354.34;;;3.29;100.00
8575;BME280;4325;42.520;27.448;2024-03-23T03:07:06;101369.97;;;3.27;100.00
8575;BME280;4325;42.520;27.448;2024-03-23T03:09:32;101356.44;;;3.27;100.00
8575;BME280;4325;42.520;27.448;2024-03-23T03:12:01;101364.16;;;3.23;100.00
8575;BME280;4325;42.520;27.448;2024-03-23T03:14:28;101352.91;;;3.20;100.00
8575;BME280;4325;42.520;27.448;2024-03-23T03:16:55;101362.69;;;3.21;100.00
8575;BME280;4325;42.520;27.448;2024-03-23T03:19:21;101352.47;;;3.16;100.00
8575;BME280;4325;42.520;27.448;2024-03-23T03:21:48;101357.09;;;3.16;100.00
8575;BME280;4325;42.520;27.448;2024-03-23T03:24:15;101360.41;;;3.11;100.00
8575;BME280;4325;42.520;27.448;2024-03-23T03:26:42;101363.72;;;3.07;100.00
8575;BME280;4325;42.520;27.448;2024-03-23T03:29:08;101353.75;;;3.01;100.00
8575;BME280;4325;42.520;27.448;2024-03-23T03:31:37;101359.78;;;2.96;100.00
8575;BME280;4325;42.520;27.448;2024-03-23T03:34:03;101360.41;;;2.92;100.00
8575;BME280;4325;42.520;27.448;2024-03-23T03:36:30;101359.97;;;2.88;100.00
8575;BME280;4325;42.520;27.448;2024-03-23T03:38:56;101360.38;;;2.85;100.00
8575;BME280;4325;42.520;27.448;2024-03-23T03:41:23;101364.97;;;2.98;100.00
8575;BME280;4325;42.520;27.448;2024-03-23T03:43:49;101356.84;;;2.98;100.00
8575;BME280;4325;42.520;27.448;2024-03-23T03:46:16;101365.38;;;2.95;100.00
8575;BME280;4325;42.520;27.448;2024-03-23T03:48:43;101363.31;;;2.97;100.00
8575;BME280;4325;42.520;27.448;2024-03-23T03:51:13;101366.66;;;2.99;100.00
8575;BME280;4325;42.520;27.448;2024-03-23T03:53:39;101363.31;;;2.97;100.00
8575;BME280;4325;42.520;27.448;2024-03-23T03:56:06;101362.03;;;2.93;100.00
8575;BME280;4325;42.520;27.448;2024-03-23T03:58:32;101361.63;;;2.96;100.00
8575;BME280;4325;42.520;27.448;2024-03-23T04:00:59;101363.72;;;2.94;100.00
8575;BME280;4325;42.520;27.448;2024-03-23T04:03:25;101370.38;;;2.91;100.00
8575;BME280;4325;42.520;27.448;2024-03-23T04:05:54;101373.69;;;2.93;100.00
8575;BME280;4325;42.520;27.448;2024-03-23T04:08:20;101374.09;;;2.90;100.00
8575;BME280;4325;42.520;27.448;2024-03-23T04:10:48;101369.94;;;2.88;100.00
8575;BME280;4325;42.520;27.448;2024-03-23T04:13:14;101371.22;;;2.92;100.00
8575;BME280;4325;42.520;27.448;2024-03-23T04:15:42;101372.88;;;2.93;100.00
8575;BME280;4325;42.520;27.448;2024-03-23T04:18:08;101374.09;;;2.90;100.00
8575;BME280;4325;42.520;27.448;2024-03-23T04:20:35;101371.00;;;2.93;100.00
8575;BME280;4325;42.520;27.448;2024-03-23T04:23:02;101378.72;;;2.96;100.00
8575;BME280;4325;42.520;27.448;2024-03-23T04:25:30;101365.59;;;3.00;100.00
8575;BME280;4325;42.520;27.448;2024-03-23T04:27:57;101374.53;;;3.07;100.00
8575;BME280;4325;42.520;27.448;2024-03-23T04:30:24;101373.31;;;3.16;100.00
8575;BME280;4325;42.520;27.448;2024-03-23T04:32:53;101371.22;;;3.24;100.00
8575;BME280;4325;42.520;27.448;2024-03-23T04:35:20;101379.53;;;3.36;100.00
8575;BME280;4325;42.520;27.448;2024-03-23T04:37:47;101370.38;;;3.50;100.00
8575;BME280;4325;42.520;27.448;2024-03-23T04:40:16;101377.84;;;3.61;100.00
8575;BME280;4325;42.520;27.448;2024-03-23T04:42:43;101365.38;;;3.67;100.00
8575;BME280;4325;42.520;27.448;2024-03-23T04:45:10;101366.56;;;3.77;100.00
8575;BME280;4325;42.520;27.448;2024-03-23T04:47:37;101371.34;;;3.88;100.00
8575;BME280;4325;42.520;27.448;2024-03-23T04:50:04;101374.88;;;3.95;100.00
8575;BME280;4325;42.520;27.448;2024-03-23T04:52:30;101373.84;;;3.96;100.00
8575;BME280;4325;42.520;27.448;2024-03-23T04:54:58;101372.34;;;4.00;100.00
8575;BME280;4325;42.520;27.448;2024-03-23T04:57:26;101379.81;;;4.12;100.00
8575;BME280;4325;42.520;27.448;2024-03-23T04:59:52;101388.94;;;4.24;100.00
8575;BME280;4325;42.520;27.448;2024-03-23T05:02:19;101381.00;;;4.29;100.00
8575;BME280;4325;42.520;27.448;2024-03-23T05:04:46;101380.19;;;4.28;100.00
8575;BME280;4325;42.520;27.448;2024-03-23T05:07:12;101383.09;;;4.27;100.00
8575;BME280;4325;42.520;27.448;2024-03-23T05:09:39;101389.34;;;4.27;100.00
8575;BME280;4325;42.520;27.448;2024-03-23T05:12:06;101382.69;;;4.30;100.00
8575;BME280;4325;42.520;27.448;2024-03-23T05:14:34;101378.06;;;4.37;100.00
8575;BME280;4325;42.520;27.448;2024-03-23T05:17:00;101382.22;;;4.39;100.00
8575;BME280;4325;42.520;27.448;2024-03-23T05:19:28;101378.25;;;4.42;100.00
8575;BME280;4325;42.520;27.448;2024-03-23T05:21:54;101380.06;;;4.48;100.00
8575;BME280;4325;42.520;27.448;2024-03-23T05:24:21;101384.66;;;4.54;100.00
8575;BME280;4325;42.520;27.448;2024-03-23T05:26:47;101385.44;;;4.61;100.00
8575;BME280;4325;42.520;27.448;2024-03-23T05:29:14;101382.06;;;4.72;100.00
8575;BME280;4325;42.520;27.448;2024-03-23T05:31:44;101381.22;;;4.72;100.00
8575;BME280;4325;42.520;27.448;2024-03-23T05:34:11;101382.13;;;4.59;100.00
8575;BME280;4325;42.520;27.448;2024-03-23T05:36:37;101385.03;;;4.64;100.00
8575;BME280;4325;42.520;27.448;2024-03-23T05:39:04;101390.88;;;4.61;100.00
8575;BME280;4325;42.520;27.448;2024-03-23T05:41:30;101386.75;;;4.52;100.00
8575;BME280;4325;42.520;27.448;2024-03-23T05:43:57;101382.53;;;4.56;100.00
8575;BME280;4325;42.520;27.448;2024-03-23T05:46:23;101385.88;;;4.58;100.00
8575;BME280;4325;42.520;27.448;2024-03-23T05:48:51;101382.44;;;4.76;100.00
8575;BME280;4325;42.520;27.448;2024-03-23T05:51:17;101381.88;;;4.67;100.00
8575;BME280;4325;42.520;27.448;2024-03-23T05:53:45;101377.91;;;4.63;100.00
8575;BME280;4325;42.520;27.448;2024-03-23T05:56:11;101384.59;;;4.67;100.00
8575;BME280;4325;42.520;27.448;2024-03-23T05:58:38;101373.38;;;4.57;100.00
8575;BME280;4325;42.520;27.448;2024-03-23T06:01:03;101377.50;;;4.66;100.00
8575;BME280;4325;42.520;27.448;2024-03-23T06:03:30;101378.22;;;4.86;100.00
8575;BME280;4325;42.520;27.448;2024-03-23T06:05:58;101379.94;;;5.05;100.00
8575;BME280;4325;42.520;27.448;2024-03-23T06:08:25;101379.22;;;5.16;100.00
8575;BME280;4325;42.520;27.448;2024-03-23T06:10:51;101384.56;;;5.29;100.00
8575;BME280;4325;42.520;27.448;2024-03-23T06:13:18;101374.03;;;5.40;100.00
8575;BME280;4325;42.520;27.448;2024-03-23T06:15:44;101379.91;;;5.61;100.00
8575;BME280;4325;42.520;27.448;2024-03-23T06:18:12;101373.19;;;5.82;100.00
8575;BME280;4325;42.520;27.448;2024-03-23T06:20:38;101376.28;;;6.10;100.00
8575;BME280;4325;42.520;27.448;2024-03-23T06:23:07;101375.50;;;6.39;100.00
8575;BME280;4325;42.520;27.448;2024-03-23T06:25:33;101377.59;;;6.55;100.00
8575;BME280;4325;42.520;27.448;2024-03-23T06:28:00;101374.25;;;6.72;100.00
8575;BME280;4325;42.520;27.448;2024-03-23T06:30:27;101370.16;;;6.92;100.00
8575;BME280;4325;42.520;27.448;2024-03-23T06:32:55;101375.91;;;7.14;100.00
8575;BME280;4325;42.520;27.448;2024-03-23T06:35:22;101362.28;;;7.25;100.00
8575;BME280;4325;42.520;27.448;2024-03-23T06:37:48;101374.41;;;7.41;100.00
8575;BME280;4325;42.520;27.448;2024-03-23T06:40:16;101359.16;;;7.52;100.00
8575;BME280;4325;42.520;27.448;2024-03-23T06:42:42;101365.19;;;7.65;98.58
8575;BME280;4325;42.520;27.448;2024-03-23T06:45:09;101362.44;;;7.77;96.74
8575;BME280;4325;42.520;27.448;2024-03-23T06:47:35;101367.78;;;7.83;97.68
8575;BME280;4325;42.520;27.448;2024-03-23T06:50:03;101364.22;;;7.94;96.80
8575;BME280;4325;42.520;27.448;2024-03-23T06:52:29;101363.97;;;8.08;95.78
8575;BME280;4325;42.520;27.448;2024-03-23T06:54:57;101372.59;;;8.16;94.97
8575;BME280;4325;42.520;27.448;2024-03-23T06:57:25;101365.25;;;8.17;94.61
8575;BME280;4325;42.520;27.448;2024-03-23T06:59:52;101363.22;;;8.24;96.22
8575;BME280;4325;42.520;27.448;2024-03-23T07:02:18;101364.97;;;8.41;94.45
8575;BME280;4325;42.520;27.448;2024-03-23T07:04:45;101363.88;;;8.54;94.50
8575;BME280;4325;42.520;27.448;2024-03-23T07:07:11;101356.84;;;8.58;95.12
8575;BME280;4325;42.520;27.448;2024-03-23T07:09:38;101356.47;;;8.66;95.53
8575;BME280;4325;42.520;27.448;2024-03-23T07:12:05;101363.44;;;8.74;96.02
8575;BME280;4325;42.520;27.448;2024-03-23T07:14:33;101356.81;;;8.86;96.27
8575;BME280;4325;42.520;27.448;2024-03-23T07:16:59;101357.88;;;9.13;94.00
8575;BME280;4325;42.520;27.448;2024-03-23T07:19:26;101362.69;;;9.40;94.09
8575;BME280;4325;42.520;27.448;2024-03-23T07:21:53;101360.44;;;9.70;91.61
8575;BME280;4325;42.520;27.448;2024-03-23T07:24:20;101361.88;;;10.32;86.78
8575;BME280;4325;42.520;27.448;2024-03-23T07:26:45;101356.72;;;11.11;80.62
8575;BME280;4325;42.520;27.448;2024-03-23T07:29:13;101352.09;;;12.37;72.70
8575;BME280;4325;42.520;27.448;2024-03-23T07:31:40;101351.31;;;14.43;59.69
8575;BME280;4325;42.520;27.448;2024-03-23T07:34:07;101346.00;;;16.68;50.21
8575;BME280;4325;42.520;27.448;2024-03-23T07:36:33;101342.03;;;18.76;44.27
8575;BME280;4325;42.520;27.448;2024-03-23T07:39:00;101339.31;;;18.98;42.35
8575;BME280;4325;42.520;27.448;2024-03-23T07:41:26;101333.50;;;19.74;40.67
8575;BME280;4325;42.520;27.448;2024-03-23T07:43:54;101338.38;;;19.69;40.33
8575;BME280;4325;42.520;27.448;2024-03-23T07:46:20;101329.31;;;20.98;38.16
8575;BME280;4325;42.520;27.448;2024-03-23T07:48:49;101330.88;;;22.90;35.49
8575;BME280;4325;42.520;27.448;2024-03-23T07:51:17;101322.81;;;23.30;34.29
8575;BME280;4325;42.520;27.448;2024-03-23T07:53:44;101324.94;;;24.22;32.70
8575;BME280;4325;42.520;27.448;2024-03-23T07:56:11;101319.69;;;25.49;31.25
8575;BME280;4325;42.520;27.448;2024-03-23T07:58:41;101320.66;;;25.13;30.73
8575;BME280;4325;42.520;27.448;2024-03-23T08:01:08;101322.44;;;26.70;29.05
8575;BME280;4325;42.520;27.448;2024-03-23T08:03:36;101311.53;;;26.50;28.53
8575;BME280;4325;42.520;27.448;2024-03-23T08:06:11;101296.75;;;25.59;29.25
8575;BME280;4325;42.520;27.448;2024-03-23T08:08:39;101307.41;;;26.63;28.41
8575;BME280;4325;42.520;27.448;2024-03-23T08:11:06;101307.09;;;26.49;27.69
8575;BME280;4325;42.520;27.448;2024-03-23T08:13:33;101309.31;;;25.10;29.33
8575;BME280;4325;42.520;27.448;2024-03-23T08:16:00;101304.66;;;24.50;30.80
8575;BME280;4325;42.520;27.448;2024-03-23T08:18:28;101301.19;;;24.92;29.95
8575;BME280;4325;42.520;27.448;2024-03-23T08:20:58;101298.66;;;26.02;28.78
8575;BME280;4325;42.520;27.448;2024-03-23T08:23:27;101303.09;;;25.87;28.79
8575;BME280;4325;42.520;27.448;2024-03-23T08:25:57;101301.31;;;26.42;28.50
8575;BME280;4325;42.520;27.448;2024-03-23T08:28:24;101300.16;;;26.77;28.17
8575;BME280;4325;42.520;27.448;2024-03-23T08:30:50;101291.97;;;26.72;27.78
8575;BME280;4325;42.520;27.448;2024-03-23T08:33:18;101295.84;;;25.55;28.96
8575;BME280;4325;42.520;27.448;2024-03-23T08:35:53;101293.19;;;26.71;28.90
8575;BME280;4325;42.520;27.448;2024-03-23T08:38:20;101282.31;;;26.19;28.43
8575;BME280;4325;42.520;27.448;2024-03-23T08:40:47;101285.09;;;27.43;27.45
8575;BME280;4325;42.520;27.448;2024-03-23T08:43:14;101284.50;;;27.76;26.51
8575;BME280;4325;42.520;27.448;2024-03-23T08:45:40;101280.25;;;28.57;25.83
8575;BME280;4325;42.520;27.448;2024-03-23T08:48:07;101269.78;;;28.05;26.34
8575;BME280;4325;42.520;27.448;2024-03-23T08:50:34;101286.47;;;27.72;26.54
8575;BME280;4325;42.520;27.448;2024-03-23T08:53:01;101278.50;;;25.65;28.60
8575;BME280;4325;42.520;27.448;2024-03-23T08:55:28;101272.06;;;24.81;29.91
8575;BME280;4325;42.520;27.448;2024-03-23T08:57:57;101279.09;;;26.52;28.33
8575;BME280;4325;42.520;27.448;2024-03-23T09:00:23;101268.16;;;24.34;29.48
8575;BME280;4325;42.520;27.448;2024-03-23T09:02:50;101264.22;;;24.11;30.01
8575;BME280;4325;42.520;27.448;2024-03-23T09:05:16;101261.38;;;24.47;30.19
8575;BME280;4325;42.520;27.448;2024-03-23T09:07:43;101262.75;;;27.12;27.40
8575;BME280;4325;42.520;27.448;2024-03-23T09:10:09;101251.34;;;25.69;28.66
8575;BME280;4325;42.520;27.448;2024-03-23T09:12:36;101251.72;;;27.22;27.49
8575;BME280;4325;42.520;27.448;2024-03-23T09:15:04;101242.50;;;27.86;25.77
8575;BME280;4325;42.520;27.448;2024-03-23T09:17:31;101252.72;;;27.33;26.27
8575;BME280;4325;42.520;27.448;2024-03-23T09:19:57;101251.38;;;27.66;26.05
8575;BME280;4325;42.520;27.448;2024-03-23T09:22:24;101242.84;;;27.20;25.83
8575;BME280;4325;42.520;27.448;2024-03-23T09:24:50;101227.72;;;26.52;26.55
8575;BME280;4325;42.520;27.448;2024-03-23T09:27:17;101235.69;;;26.50;27.04
8575;BME280;4325;42.520;27.448;2024-03-23T09:29:43;101221.97;;;27.21;25.81
8575;BME280;4325;42.520;27.448;2024-03-23T09:32:12;101223.84;;;26.95;25.95
8575;BME280;4325;42.520;27.448;2024-03-23T09:34:38;101222.00;;;26.48;26.76
8575;BME280;4325;42.520;27.448;2024-03-23T09:37:05;101218.25;;;27.82;25.62
8575;BME280;4325;42.520;27.448;2024-03-23T09:39:31;101212.34;;;28.65;24.41
8575;BME280;4325;42.520;27.448;2024-03-23T09:41:58;101214.03;;;27.46;25.24
8575;BME280;4325;42.520;27.448;2024-03-23T09:44:24;101206.88;;;27.29;25.61
8575;BME280;4325;42.520;27.448;2024-03-23T09:46:55;101213.03;;;30.02;23.36
8575;BME280;4325;42.520;27.448;2024-03-23T09:49:23;101201.16;;;30.34;21.95
8575;BME280;4325;42.520;27.448;2024-03-23T09:51:50;101198.28;;;30.27;22.38
8575;BME280;4325;42.520;27.448;2024-03-23T09:54:16;101194.69;;;29.35;23.42
8575;BME280;4325;42.520;27.448;2024-03-23T09:56:43;101195.91;;;31.32;21.92
8575;BME280;4325;42.520;27.448;2024-03-23T09:59:09;101195.16;;;31.57;21.28
8575;BME280;4325;42.520;27.448;2024-03-23T10:01:36;101192.03;;;30.65;21.51
8575;BME280;4325;42.520;27.448;2024-03-23T10:04:03;101187.03;;;31.30;21.03
8575;BME280;4325;42.520;27.448;2024-03-23T10:06:32;101185.50;;;31.68;20.63
8575;BME280;4325;42.520;27.448;2024-03-23T10:08:59;101174.88;;;33.33;19.28
8575;BME280;4325;42.520;27.448;2024-03-23T10:11:26;101178.19;;;31.92;19.40
8575;BME280;4325;42.520;27.448;2024-03-23T10:13:54;101172.22;;;30.58;20.87
8575;BME280;4325;42.520;27.448;2024-03-23T10:16:23;101172.56;;;30.46;21.20
8575;BME280;4325;42.520;27.448;2024-03-23T10:18:49;101170.91;;;31.49;19.81
8575;BME280;4325;42.520;27.448;2024-03-23T10:21:16;101159.25;;;34.44;18.52
8575;BME280;4325;42.520;27.448;2024-03-23T10:23:44;101156.47;;;34.37;18.23
8575;BME280;4325;42.520;27.448;2024-03-23T10:26:16;101160.81;;;31.76;19.60
8575;BME280;4325;42.520;27.448;2024-03-23T10:28:56;101140.91;;;32.25;19.62
8575;BME280;4325;42.520;27.448;2024-03-23T10:31:26;101143.44;;;33.61;17.62
8575;BME280;4325;42.520;27.448;2024-03-23T10:33:52;101139.94;;;35.23;17.20
8575;BME280;4325;42.520;27.448;2024-03-23T10:36:21;101139.78;;;34.76;17.29
8575;BME280;4325;42.520;27.448;2024-03-23T10:38:50;101133.81;;;35.97;17.61
8575;BME280;4325;42.520;27.448;2024-03-23T10:41:17;101132.47;;;36.25;16.46
8575;BME280;4325;42.520;27.448;2024-03-23T10:43:46;101127.69;;;35.26;17.08
8575;BME280;4325;42.520;27.448;2024-03-23T10:46:13;101123.47;;;34.13;17.54
8575;BME280;4325;42.520;27.448;2024-03-23T10:48:40;101126.09;;;35.48;17.16
8575;BME280;4325;42.520;27.448;2024-03-23T10:51:08;101114.66;;;35.25;17.27
8575;BME280;4325;42.520;27.448;2024-03-23T10:53:34;101099.59;;;35.97;17.40
8575;BME280;4325;42.520;27.448;2024-03-23T10:56:04;101102.84;;;36.38;16.59
8575;BME280;4325;42.520;27.448;2024-03-23T10:58:34;101101.56;;;34.77;17.08
8575;BME280;4325;42.520;27.448;2024-03-23T11:01:04;101095.88;;;35.31;17.14
8575;BME280;4325;42.520;27.448;2024-03-23T11:03:31;101082.47;;;36.76;16.23
8575;BME280;4325;42.520;27.448;2024-03-23T11:05:59;101077.25;;;39.71;14.85
8575;BME280;4325;42.520;27.448;2024-03-23T11:08:32;101079.06;;;39.18;14.14
8575;BME280;4325;42.520;27.448;2024-03-23T11:11:19;101078.66;;;37.18;15.54
8575;BME280;4325;42.520;27.448;2024-03-23T11:13:48;101065.38;;;37.72;15.47
8575;BME280;4325;42.520;27.448;2024-03-23T11:16:16;101062.41;;;37.92;14.97
8575;BME280;4325;42.520;27.448;2024-03-23T11:18:43;101052.25;;;36.78;15.61
8575;BME280;4325;42.520;27.448;2024-03-23T11:21:10;101047.50;;;36.72;15.58
8575;BME280;4325;42.520;27.448;2024-03-23T11:23:37;101056.34;;;37.45;14.91
8575;BME280;4325;42.520;27.448;2024-03-23T11:26:07;101039.16;;;38.06;14.51
8575;BME280;4325;42.520;27.448;2024-03-23T11:28:35;101047.13;;;34.45;16.49
8575;BME280;4325;42.520;27.448;2024-03-23T11:31:09;101027.22;;;32.09;18.32
8575;BME280;4325;42.520;27.448;2024-03-23T11:33:35;101038.44;;;33.03;17.89
8575;BME280;4325;42.520;27.448;2024-03-23T11:36:04;101032.03;;;33.84;17.40
8575;BME280;4325;42.520;27.448;2024-03-23T11:38:36;101031.38;;;33.69;17.37
8575;BME280;4325;42.520;27.448;2024-03-23T11:41:03;101026.97;;;33.20;17.70
8575;BME280;4325;42.520;27.448;2024-03-23T11:43:30;101021.13;;;32.90;18.24
8575;BME280;4325;42.520;27.448;2024-03-23T11:45:59;101018.66;;;34.18;17.24
8575;BME280;4325;42.520;27.448;2024-03-23T11:48:28;101019.03;;;36.32;16.14
8575;BME280;4325;42.520;27.448;2024-03-23T11:50:57;101015.09;;;36.26;15.72
8575;BME280;4325;42.520;27.448;2024-03-23T11:53:24;101009.97;;;37.83;15.44
8575;BME280;4325;42.520;27.448;2024-03-23T11:55:53;101017.53;;;38.72;14.83
8575;BME280;4325;42.520;27.448;2024-03-23T11:58:20;101006.00;;;36.31;15.56
8575;BME280;4325;42.520;27.448;2024-03-23T12:00:51;101003.94;;;33.52;17.18
8575;BME280;4325;42.520;27.448;2024-03-23T12:03:19;101002.44;;;34.15;17.09
8575;BME280;4325;42.520;27.448;2024-03-23T12:05:49;100991.41;;;35.90;16.53
8575;BME280;4325;42.520;27.448;2024-03-23T12:08:21;100988.34;;;35.38;15.98
8575;BME280;4325;42.520;27.448;2024-03-23T12:10:49;100987.72;;;33.53;17.50
8575;BME280;4325;42.520;27.448;2024-03-23T12:13:17;100979.06;;;32.06;18.52
8575;BME280;4325;42.520;27.448;2024-03-23T12:15:44;100976.31;;;32.68;17.70
8575;BME280;4325;42.520;27.448;2024-03-23T12:18:11;100972.03;;;32.93;17.40
8575;BME280;4325;42.520;27.448;2024-03-23T12:20:40;100970.16;;;35.75;16.13
8575;BME280;4325;42.520;27.448;2024-03-23T12:23:09;100969.13;;;36.76;15.50
8575;BME280;4325;42.520;27.448;2024-03-23T12:25:37;100956.66;;;37.19;16.91
8575;BME280;4325;42.520;27.448;2024-03-23T12:28:04;100958.16;;;38.09;16.65
8575;BME280;4325;42.520;27.448;2024-03-23T12:30:37;100954.94;;;39.55;15.30
8575;BME280;4325;42.520;27.448;2024-03-23T12:33:04;100951.16;;;39.24;15.34
8575;BME280;4325;42.520;27.448;2024-03-23T12:35:32;100941.50;;;38.58;15.92
8575;BME280;4325;42.520;27.448;2024-03-23T12:38:00;100948.25;;;35.72;17.65
8575;BME280;4325;42.520;27.448;2024-03-23T12:40:27;100944.38;;;35.82;17.68
8575;BME280;4325;42.520;27.448;2024-03-23T12:42:53;100939.53;;;36.18;17.54
8575;BME280;4325;42.520;27.448;2024-03-23T12:45:21;100938.09;;;36.78;17.60
8575;BME280;4325;42.520;27.448;2024-03-23T12:47:47;100938.59;;;37.66;16.56
8575;BME280;4325;42.520;27.448;2024-03-23T12:50:14;100926.31;;;39.08;16.16
8575;BME280;4325;42.520;27.448;2024-03-23T12:52:40;100937.75;;;39.98;15.51
8575;BME280;4325;42.520;27.448;2024-03-23T12:55:09;100945.88;;;40.21;14.82
8575;BME280;4325;42.520;27.448;2024-03-23T12:57:36;100927.97;;;39.65;15.20
8575;BME280;4325;42.520;27.448;2024-03-23T13:00:04;100934.06;;;38.48;16.04
8575;BME280;4325;42.520;27.448;2024-03-23T13:02:31;100927.16;;;38.08;16.72
8575;BME280;4325;42.520;27.448;2024-03-23T13:05:00;100905.47;;;37.40;16.24
8575;BME280;4325;42.520;27.448;2024-03-23T13:07:26;100911.16;;;36.47;17.13
8575;BME280;4325;42.520;27.448;2024-03-23T13:09:53;100908.38;;;36.08;17.50
8575;BME280;4325;42.520;27.448;2024-03-23T13:12:20;100901.59;;;35.23;18.39
8575;BME280;4325;42.520;27.448;2024-03-23T13:14:48;100900.34;;;35.24;18.03
8575;BME280;4325;42.520;27.448;2024-03-23T13:17:14;100890.34;;;35.36;18.32
8575;BME280;4325;42.520;27.448;2024-03-23T13:19:41;100902.19;;;34.88;18.22
8575;BME280;4325;42.520;27.448;2024-03-23T13:22:07;100901.53;;;34.80;18.30
8575;BME280;4325;42.520;27.448;2024-03-23T13:24:36;100901.03;;;34.09;18.93
8575;BME280;4325;42.520;27.448;2024-03-23T13:27:03;100895.28;;;32.67;19.87
8575;BME280;4325;42.520;27.448;2024-03-23T13:29:34;100893.50;;;31.56;20.79
8575;BME280;4325;42.520;27.448;2024-03-23T13:32:00;100882.63;;;32.23;20.79
8575;BME280;4325;42.520;27.448;2024-03-23T13:34:27;100876.56;;;32.25;20.31
8575;BME280;4325;42.520;27.448;2024-03-23T13:36:55;100881.22;;;32.52;20.11
8575;BME280;4325;42.520;27.448;2024-03-23T13:39:23;100880.28;;;32.70;20.00
8575;BME280;4325;42.520;27.448;2024-03-23T13:41:49;100870.91;;;33.54;19.74
8575;BME280;4325;42.520;27.448;2024-03-23T13:44:17;100874.22;;;34.63;19.01
8575;BME280;4325;42.520;27.448;2024-03-23T13:46:44;100867.78;;;34.06;18.87
8575;BME280;4325;42.520;27.448;2024-03-23T13:49:24;100868.84;;;31.42;20.77
8575;BME280;4325;42.520;27.448;2024-03-23T13:51:52;100871.31;;;31.33;20.83
8575;BME280;4325;42.520;27.448;2024-03-23T13:54:19;100866.56;;;32.06;21.02